Time;durP1;ratioP1;P1;durP2;ratioP2;P2;SDS_P1;SDS_P2;PMS_P1;PMS_P2;Temp;Humidity;BMP_temperature;BMP_pressure;BME280_temperature;BME280_humidity;BME280_pressure;Samples;Min_cycle;Max_cycle;Signal;HPM_P1;HPM_P2
2023/08/06 00:00:28;;;;;;;6.55;4.05;;;15.20;99.90;;;-144.05;87.11;56969.91;6125915;23;20060;-90
2023/08/06 00:02:54;;;;;;;6.85;3.53;;;15.10;99.90;;;-144.05;86.70;56946.53;6125483;23;20010;-89
2023/08/06 00:05:21;;;;;;;5.13;3.72;;;15.10;99.90;;;-144.05;86.63;56967.78;6125582;23;20010;-89
2023/08/06 00:07:51;;;;;;;5.90;4.03;;;15.20;99.90;;;-144.05;86.52;56935.91;6126589;23;20062;-89
2023/08/06 00:10:17;;;;;;;3.78;3.20;;;15.20;99.90;;;-144.05;86.51;56967.78;6127525;23;20088;-89
2023/08/06 00:12:46;;;;;;;7.32;3.75;;;15.20;99.90;;;-144.05;86.27;56959.28;6125795;23;20021;-88
2023/08/06 00:15:12;;;;;;;7.50;3.70;;;15.20;99.90;;;-144.05;86.14;56946.53;6127696;23;20452;-89
2023/08/06 00:17:47;;;;;;;6.57;3.72;;;15.20;99.90;;;-144.05;86.34;56997.50;6126837;23;20014;-91
2023/08/06 00:20:13;;;;;;;5.40;3.63;;;15.20;99.90;;;-144.05;86.08;56967.78;6126967;23;20036;-89
2023/08/06 00:22:39;;;;;;;3.90;3.50;;;15.30;99.90;;;-144.05;85.89;56965.66;6126580;23;20009;-89
2023/08/06 00:25:06;;;;;;;8.70;3.85;;;15.20;99.90;;;-144.05;85.76;56976.28;6126097;23;20423;-90
2023/08/06 00:27:32;;;;;;;7.38;3.88;;;15.20;99.90;;;-144.05;85.69;56933.78;6125815;23;20344;-89
2023/08/06 00:29:59;;;;;;;6.38;3.28;;;15.20;99.90;;;-144.05;86.47;56984.78;6125297;23;20026;-89
2023/08/06 00:32:25;;;;;;;6.53;3.80;;;15.30;99.90;;;-144.05;85.10;56969.91;6126165;23;20475;-92
2023/08/06 00:34:51;;;;;;;5.43;3.35;;;15.30;99.90;;;-144.05;85.62;56959.28;6129148;23;20395;-89
2023/08/06 00:37:17;;;;;;;4.40;3.28;;;15.30;99.90;;;-144.05;85.95;56950.78;6152605;23;20009;-90
2023/08/06 00:39:44;;;;;;;4.93;3.60;;;15.30;99.90;;;-144.05;85.40;56976.28;6127644;23;20442;-91
2023/08/06 00:42:13;;;;;;;4.85;3.50;;;15.30;99.90;;;-144.05;85.84;56959.28;6128792;23;20383;-89
2023/08/06 00:44:40;;;;;;;9.65;3.75;;;15.30;99.90;;;-144.05;84.88;56978.41;6125992;23;20097;-87
2023/08/06 00:47:08;;;;;;;6.10;3.55;;;15.30;99.90;;;-144.05;84.48;56959.28;6124029;23;20377;-87
2023/08/06 00:49:36;;;;;;;4.93;3.05;;;15.30;99.90;;;-144.05;84.76;56933.78;6124046;23;20325;-88
2023/08/06 00:52:07;;;;;;;4.75;3.28;;;15.30;99.90;;;-144.05;85.16;56969.91;6124142;23;20017;-88
2023/08/06 00:54:35;;;;;;;6.57;3.20;;;15.30;99.90;;;-144.05;85.02;56944.41;6124837;23;20432;-86
2023/08/06 00:57:03;;;;;;;4.60;2.95;;;15.30;99.90;;;-144.05;84.94;56961.41;6124594;23;20012;-89
2023/08/06 00:59:31;;;;;;;7.85;2.95;;;15.30;99.90;;;-144.05;85.18;56961.41;6131910;23;20006;-88
2023/08/06 01:01:57;;;;;;;5.05;2.83;;;15.30;99.90;;;-144.05;84.57;56969.91;6145460;23;20006;-88
2023/08/06 01:04:24;;;;;;;5.30;3.50;;;15.30;99.90;;;-144.05;84.56;56950.78;6146097;23;20021;-86
2023/08/06 01:07:22;;;;;;;6.03;3.42;;;15.30;99.90;;;-144.05;84.97;56963.53;6147969;23;21331;-88
2023/08/06 01:10:27;;;;;;;5.82;3.13;;;15.20;99.90;;;-144.05;85.17;56942.28;6124882;23;20088;-88
2023/08/06 01:13:49;;;;;;;7.32;3.17;;;15.20;99.90;;;-144.05;85.54;56974.16;6123904;23;20013;-86
2023/08/06 01:16:21;;;;;;;6.72;3.75;;;15.20;99.90;;;-144.05;85.52;56982.66;6124001;23;20443;-91
2023/08/06 01:18:50;;;;;;;6.00;3.90;;;15.20;99.90;;;-144.05;85.49;56967.78;6123457;23;20018;-92
2023/08/06 01:21:18;;;;;;;4.47;3.13;;;15.20;99.90;;;-144.05;85.41;56972.03;6123976;23;20017;-91
2023/08/06 01:23:47;;;;;;;6.18;3.60;;;15.20;99.90;;;-144.05;85.39;56952.91;6124285;23;20018;-92
2023/08/06 01:26:43;;;;;;;8.65;3.58;;;15.10;99.90;;;-144.05;85.12;56948.66;6123645;23;20140;-89
2023/08/06 01:29:26;;;;;;;5.28;3.30;;;15.10;99.90;;;-144.05;85.05;56961.41;6123630;23;20495;-88
2023/08/06 01:31:56;;;;;;;4.75;2.95;;;15.10;99.90;;;-144.05;84.84;56957.16;6123600;23;20002;-88
2023/08/06 01:34:27;;;;;;;9.23;3.65;;;15.10;99.90;;;-144.05;84.71;56948.66;6123586;23;20017;-88
2023/08/06 01:36:54;;;;;;;4.72;3.45;;;15.10;99.90;;;-144.05;84.91;56955.03;6123290;23;20002;-89
2023/08/06 01:39:21;;;;;;;5.00;3.20;;;15.20;99.90;;;-144.05;84.93;56957.16;6123372;23;20021;-88
2023/08/06 01:41:48;;;;;;;3.80;2.88;;;15.10;99.90;;;-144.05;84.89;56965.66;6123531;23;20005;-88
2023/08/06 01:44:16;;;;;;;5.68;2.90;;;15.20;99.90;;;-144.05;84.93;56961.41;6123800;23;20012;-89
2023/08/06 01:46:42;;;;;;;4.80;3.30;;;15.10;99.90;;;-144.05;85.24;56963.53;6123452;23;20033;-88
2023/08/06 01:49:08;;;;;;;7.25;3.80;;;15.10;99.90;;;-144.05;84.99;56955.03;6123584;23;20432;-89
2023/08/06 01:51:34;;;;;;;7.47;3.38;;;15.10;99.90;;;-144.05;85.92;56948.66;6127178;23;20037;-88
2023/08/06 01:54:00;;;;;;;6.97;3.92;;;15.10;99.90;;;-144.05;86.26;56933.78;6126540;23;20325;-88
2023/08/06 01:56:25;;;;;;;6.93;4.28;;;15.10;99.90;;;-144.05;86.75;56940.16;6126636;23;20021;-87
2023/08/06 01:58:51;;;;;;;6.45;3.63;;;15.10;99.90;;;-144.05;86.11;56938.03;6126443;23;20014;-87
2023/08/06 02:01:17;;;;;;;4.70;3.22;;;15.10;99.90;;;-144.05;86.67;56972.03;6127713;23;20022;-86
2023/08/06 02:03:43;;;;;;;4.68;3.65;;;15.10;99.90;;;-144.05;86.23;56955.03;6128068;23;20010;-91
2023/08/06 02:06:09;;;;;;;11.30;3.65;;;15.10;99.90;;;-144.05;86.77;56957.16;6131796;23;20037;-88
2023/08/06 02:08:35;;;;;;;5.28;3.75;;;15.10;99.90;;;-144.05;86.95;56976.28;6127959;23;20013;-90
2023/08/06 02:11:02;;;;;;;4.70;3.30;;;15.10;99.90;;;-144.05;87.18;56969.91;6126856;23;20010;-85
2023/08/06 02:13:28;;;;;;;5.63;3.42;;;15.00;99.90;;;-144.05;87.67;56944.41;6126702;23;20006;-86
2023/08/06 02:15:54;;;;;;;5.95;4.15;;;15.00;99.90;;;-144.05;87.48;56965.66;6126692;23;20072;-88
2023/08/06 02:18:20;;;;;;;11.68;3.80;;;15.00;99.90;;;-144.05;87.72;56955.03;6126524;23;20018;-86
2023/08/06 02:20:59;;;;;;;7.13;3.97;;;15.00;99.90;;;-144.05;87.58;56965.66;6129280;23;20013;-87
2023/08/06 02:23:26;;;;;;;4.05;3.63;;;15.00;99.90;;;-144.05;87.35;56961.41;6126811;23;20096;-85
2023/08/06 02:26:01;;;;;;;6.63;4.22;;;14.90;99.90;;;-144.05;87.66;56965.66;6126425;23;20042;-86
2023/08/06 02:28:27;;;;;;;6.82;4.32;;;14.90;99.90;;;-144.05;87.50;56957.16;6126382;23;20085;-86
2023/08/06 02:30:53;;;;;;;5.20;4.07;;;14.90;99.90;;;-144.05;87.98;56963.53;6128026;23;20006;-87
2023/08/06 02:33:19;;;;;;;7.85;3.90;;;14.90;99.90;;;-144.05;87.37;56925.28;6126748;23;20499;-87
2023/08/06 02:35:45;;;;;;;5.43;3.80;;;14.90;99.90;;;-144.05;87.88;56969.91;6126995;23;20080;-88
2023/08/06 02:38:10;;;;;;;6.70;4.20;;;14.90;99.90;;;-144.05;87.66;56955.03;6126761;23;20086;-86
2023/08/06 02:40:36;;;;;;;5.18;3.92;;;14.90;99.90;;;-144.05;88.14;56942.28;6128139;23;20016;-87
2023/08/06 02:43:02;;;;;;;6.38;3.85;;;14.80;99.90;;;-144.05;88.07;56965.66;6127209;23;20010;-87
2023/08/06 02:45:29;;;;;;;5.25;3.80;;;14.80;99.90;;;-144.05;88.20;56978.41;6126851;23;20296;-84
2023/08/06 02:47:55;;;;;;;5.00;3.90;;;14.80;99.90;;;-144.05;88.44;56967.78;6126653;23;20010;-86
2023/08/06 02:50:21;;;;;;;5.85;3.95;;;14.80;99.90;;;-144.05;88.27;56978.41;6127040;23;20010;-87
2023/08/06 02:52:47;;;;;;;6.38;5.03;;;14.80;99.90;;;-144.05;89.00;56959.28;6126692;23;20002;-86
2023/08/06 02:55:14;;;;;;;7.25;4.63;;;14.80;99.90;;;-144.05;89.03;56957.16;6126556;23;20048;-87
2023/08/06 02:57:39;;;;;;;5.88;4.22;;;14.80;99.90;;;-144.05;89.14;56967.78;6126430;23;20006;-87
2023/08/06 03:00:07;;;;;;;11.07;4.60;;;14.80;99.90;;;-144.05;89.14;56955.03;6126282;23;20014;-88
2023/08/06 03:02:32;;;;;;;4.60;3.47;;;14.80;99.90;;;-144.05;88.94;56952.91;6125865;23;20013;-85
2023/08/06 03:04:58;;;;;;;5.95;4.53;;;14.80;99.90;;;-144.05;88.67;56965.66;6125467;23;20014;-88
2023/08/06 03:07:24;;;;;;;5.68;3.88;;;14.80;99.90;;;-144.05;88.59;56967.78;6125336;23;20010;-88
2023/08/06 03:09:50;;;;;;;5.20;4.13;;;14.80;99.90;;;-144.05;88.67;56969.91;6125141;23;20061;-88
2023/08/06 03:12:16;;;;;;;5.65;4.10;;;14.70;99.90;;;-144.05;88.60;56972.03;6125648;23;20006;-87
2023/08/06 03:14:42;;;;;;;5.65;4.40;;;14.80;99.90;;;-144.05;88.79;56946.53;6125450;23;20014;-87
2023/08/06 03:19:42;;;;;;;6.65;4.35;;;14.60;99.90;;;-144.05;89.01;57003.88;6159105;23;20021;-87
2023/08/06 03:22:08;;;;;;;5.25;4.22;;;14.60;99.90;;;-144.05;88.82;56969.91;6133490;23;20006;-86
2023/08/06 03:24:34;;;;;;;4.85;3.58;;;14.60;99.90;;;-144.05;88.84;56944.41;6133644;23;20006;-86
2023/08/06 03:27:00;;;;;;;5.30;3.80;;;14.60;99.90;;;-144.05;89.00;56963.53;6136264;23;20005;-88
2023/08/06 03:29:26;;;;;;;7.32;4.25;;;14.50;99.90;;;-144.05;88.86;56961.41;6152542;23;20510;-88
2023/08/06 03:31:52;;;;;;;5.72;4.60;;;14.50;99.90;;;-144.05;88.98;56957.16;6170657;23;20096;-88
2023/08/06 03:34:18;;;;;;;7.65;4.88;;;14.50;99.90;;;-144.05;88.84;56952.91;6134837;23;20016;-87
2023/08/06 03:36:44;;;;;;;7.32;4.47;;;14.50;99.90;;;-144.05;88.59;56963.53;6129389;23;20010;-88
2023/08/06 03:39:10;;;;;;;5.55;4.07;;;14.50;99.90;;;-144.05;88.94;56935.91;6129037;23;20502;-87
2023/08/06 03:41:36;;;;;;;8.77;3.80;;;14.40;99.90;;;-144.05;88.95;56972.03;6129413;23;20084;-87
2023/08/06 03:44:03;;;;;;;4.78;4.13;;;14.40;99.90;;;-144.05;88.96;56948.66;6129926;23;20014;-88
2023/08/06 03:46:33;;;;;;;6.40;4.53;;;14.40;99.90;;;-144.05;89.09;56972.03;6154045;23;20093;-87
2023/08/06 03:49:00;;;;;;;5.45;4.13;;;14.30;99.90;;;-144.05;89.16;56944.41;6129307;23;20029;-88
2023/08/06 03:51:26;;;;;;;5.60;4.47;;;14.30;99.90;;;-144.05;89.18;56961.41;6130069;23;20009;-87
2023/08/06 03:53:52;;;;;;;6.22;4.60;;;14.30;99.90;;;-144.05;89.48;56986.91;6129523;23;20431;-86
2023/08/06 03:56:18;;;;;;;7.30;4.63;;;14.30;99.90;;;-144.05;89.34;56976.28;6136786;23;20439;-87
2023/08/06 03:58:44;;;;;;;4.93;4.40;;;14.30;99.90;;;-144.05;89.04;56959.28;6143977;23;20013;-87
2023/08/06 04:01:10;;;;;;;4.47;3.85;;;14.30;99.90;;;-144.05;88.90;56959.28;6143701;23;20275;-88
2023/08/06 04:03:35;;;;;;;6.03;4.38;;;14.30;99.90;;;-144.05;89.00;56963.53;6141288;23;20097;-87
2023/08/06 04:06:04;;;;;;;4.82;4.10;;;14.30;99.90;;;-144.05;88.81;56965.66;6138835;23;20017;-87
2023/08/06 04:08:31;;;;;;;5.50;4.20;;;14.30;99.90;;;-144.05;89.04;56963.53;6164559;23;20002;-87
2023/08/06 04:10:57;;;;;;;5.63;4.53;;;14.30;99.90;;;-144.05;89.33;56955.03;6140435;23;20320;-87
2023/08/06 04:13:23;;;;;;;5.70;4.00;;;14.30;99.90;;;-144.05;89.13;56948.66;6140353;23;20015;-87
2023/08/06 04:15:49;;;;;;;6.30;4.30;;;14.30;99.90;;;-144.05;89.15;56946.53;6140889;23;20009;-88
2023/08/06 04:18:15;;;;;;;5.20;3.55;;;14.30;99.90;;;-144.05;89.18;56965.66;6140650;23;20127;-89
2023/08/06 04:20:49;;;;;;;6.82;4.72;;;14.30;99.90;;;-144.05;89.17;56961.41;6140593;23;20084;-88
2023/08/06 04:23:15;;;;;;;5.85;4.80;;;14.30;99.90;;;-144.05;89.11;56957.16;6165658;23;20021;-88
2023/08/06 04:25:41;;;;;;;4.97;4.10;;;14.20;99.90;;;-144.05;89.12;56959.28;6139268;23;20013;-88
2023/08/06 04:28:07;;;;;;;4.80;3.72;;;14.20;99.90;;;-144.05;88.88;56974.16;6163381;23;20390;-87
2023/08/06 04:30:34;;;;;;;5.13;3.85;;;14.20;99.90;;;-144.05;88.51;56955.03;6139486;23;20138;-87
2023/08/06 04:33:00;;;;;;;5.82;3.67;;;14.10;99.90;;;-144.05;88.76;56972.03;6163352;23;20006;-87
2023/08/06 04:35:25;;;;;;;8.85;4.38;;;14.10;99.90;;;-144.05;88.78;56935.91;6138638;23;20325;-87
2023/08/06 04:37:52;;;;;;;6.03;4.00;;;14.10;99.90;;;-144.05;89.05;56982.66;6137829;23;20013;-88
2023/08/06 04:40:17;;;;;;;6.18;4.53;;;14.00;99.90;;;-144.05;89.06;56976.28;6137532;23;20024;-87
2023/08/06 04:42:43;;;;;;;4.15;3.70;;;14.00;99.90;;;-144.05;89.08;56942.28;6137038;23;20013;-87
2023/08/06 04:45:09;;;;;;;6.53;4.40;;;14.00;99.90;;;-144.05;89.18;56963.53;6137082;23;20010;-87
2023/08/06 04:47:35;;;;;;;6.60;4.03;;;14.00;99.90;;;-144.05;88.97;56969.91;6136283;23;20384;-87
2023/08/06 04:50:01;;;;;;;6.65;4.88;;;14.00;99.90;;;-144.05;89.28;56955.03;6135966;23;20020;-85
2023/08/06 04:52:28;;;;;;;7.20;4.07;;;14.00;99.90;;;-144.05;89.30;56940.16;6136631;23;20024;-86
2023/08/06 04:54:54;;;;;;;7.47;5.03;;;14.00;99.90;;;-144.05;89.64;56955.03;6136581;23;20010;-86
2023/08/06 04:57:21;;;;;;;7.10;4.20;;;14.00;99.90;;;-144.05;89.52;56967.78;6136480;23;20012;-85
2023/08/06 04:59:47;;;;;;;5.65;4.35;;;14.10;99.90;;;-144.05;89.34;56976.28;6137724;23;20001;-86
2023/08/06 05:02:13;;;;;;;7.65;4.43;;;14.10;99.90;;;-144.05;88.97;56959.28;6162093;23;20002;-86
2023/08/06 05:04:39;;;;;;;6.07;4.22;;;14.20;99.90;;;-144.05;88.79;56965.66;6137659;23;20010;-85
2023/08/06 05:07:06;;;;;;;5.22;3.97;;;14.30;99.90;;;-144.05;89.08;56980.53;6138006;23;20002;-85
2023/08/06 05:09:33;;;;;;;5.45;3.80;;;14.30;99.90;;;-144.05;89.00;56980.53;6161410;23;20071;-86
2023/08/06 05:12:02;;;;;;;6.43;3.95;;;14.40;99.90;;;-144.05;89.14;56980.53;6137090;23;20014;-86
2023/08/06 05:14:28;;;;;;;7.35;4.78;;;14.50;99.90;;;-144.05;89.27;56972.03;6161961;23;20009;-86
2023/08/06 05:16:53;;;;;;;7.75;4.13;;;14.50;99.90;;;-144.05;89.12;56952.91;6137414;23;20460;-85
2023/08/06 05:19:19;;;;;;;8.25;4.70;;;14.60;99.90;;;-144.05;89.43;56955.03;6136682;23;20512;-83
2023/08/06 05:21:45;;;;;;;6.15;4.60;;;14.60;99.90;;;-144.05;89.66;56959.28;6137305;23;20010;-87
2023/08/06 05:24:12;;;;;;;5.90;3.88;;;14.70;99.90;;;-144.05;89.46;56991.13;6136450;23;20033;-87
2023/08/06 05:26:37;;;;;;;5.07;3.97;;;14.70;99.90;;;-144.05;89.69;56984.78;6135510;23;20013;-87
2023/08/06 05:29:03;;;;;;;5.00;4.22;;;14.80;99.90;;;-144.05;89.27;56948.66;6136648;23;20012;-85
2023/08/06 05:31:29;;;;;;;6.13;4.22;;;14.80;99.90;;;-144.05;89.29;56980.53;6136673;23;20040;-85
2023/08/06 05:33:55;;;;;;;5.53;3.55;;;14.80;99.90;;;-144.05;89.13;56965.66;6137109;23;20006;-86
2023/08/06 05:36:22;;;;;;;5.25;3.50;;;14.90;99.90;;;-144.05;88.79;56972.03;6137453;23;20009;-86
2023/08/06 05:38:48;;;;;;;5.35;3.42;;;14.90;99.90;;;-144.05;88.23;56950.78;6136476;23;20033;-84
2023/08/06 05:41:14;;;;;;;6.90;3.83;;;15.00;99.90;;;-144.05;87.59;56982.66;6136862;23;20016;-87
2023/08/06 05:43:40;;;;;;;4.63;3.60;;;15.00;99.90;;;-144.05;87.54;56961.41;6138091;23;20060;-86
2023/08/06 05:46:05;;;;;;;5.35;3.85;;;15.10;99.90;;;-144.05;87.15;56984.78;6161267;23;20013;-87
2023/08/06 05:48:31;;;;;;;3.72;3.08;;;15.30;99.90;;;-144.05;86.90;56965.66;6160097;23;20006;-87
2023/08/06 05:50:58;;;;;;;4.60;3.00;;;15.40;99.90;;;-144.05;84.83;56989.00;6136516;23;20013;-88
2023/08/06 05:53:24;;;;;;;4.38;2.85;;;15.40;99.90;;;-144.05;85.55;56969.91;6135141;23;20002;-85
2023/08/06 05:55:51;;;;;;;6.63;3.55;;;15.60;99.90;;;-144.05;84.24;56942.28;6134002;23;20017;-85
2023/08/06 05:58:16;;;;;;;4.95;3.10;;;15.70;99.90;;;-144.05;84.64;56972.03;6134615;23;20041;-84
2023/08/06 06:00:43;;;;;;;7.28;3.30;;;15.90;99.90;;;-144.05;82.97;56976.28;6133351;23;20013;-83
2023/08/06 06:03:09;;;;;;;5.55;3.40;;;16.20;99.90;;;-144.05;81.99;56978.41;6143652;23;20014;-88
2023/08/06 06:05:41;;;;;;;6.20;3.33;;;16.30;99.90;;;-144.05;82.39;56980.53;6142556;23;20009;-87
2023/08/06 06:08:07;;;;;;;4.93;2.90;;;16.40;99.90;;;-144.05;82.41;57001.75;6141293;23;20353;-87
2023/08/06 06:10:32;;;;;;;4.70;3.30;;;16.50;99.90;;;-144.05;82.29;56976.28;6142066;23;20021;-84
2023/08/06 06:12:58;;;;;;;4.63;2.67;;;16.60;99.90;;;-144.05;82.02;56972.03;6140683;23;20007;-85
2023/08/06 06:15:24;;;;;;;6.18;3.20;;;16.70;99.90;;;-144.05;81.66;56967.78;6137826;23;20101;-87
2023/08/06 06:17:50;;;;;;;3.25;2.83;;;16.70;99.90;;;-144.05;81.72;56963.53;6136458;23;20478;-88
2023/08/06 06:20:16;;;;;;;3.60;2.97;;;16.80;99.90;;;-144.05;81.40;56974.16;6161205;23;20017;-87
2023/08/06 06:22:42;;;;;;;10.10;3.50;;;16.80;99.90;;;-144.05;81.34;56940.16;6135318;23;20009;-84
2023/08/06 06:25:10;;;;;;;4.43;3.15;;;16.90;99.90;;;-144.05;80.97;56993.25;6134167;23;20013;-87
2023/08/06 06:27:36;;;;;;;4.45;3.00;;;17.10;99.90;;;-144.05;80.19;56963.53;6135793;23;20455;-85
2023/08/06 06:30:02;;;;;;;4.32;3.20;;;17.30;99.90;;;-144.05;79.15;56980.53;6159626;23;20012;-85
2023/08/06 06:32:28;;;;;;;4.30;3.05;;;17.30;99.90;;;-144.05;77.15;56978.41;6160272;23;20089;-83
2023/08/06 06:34:54;;;;;;;4.65;2.55;;;17.40;99.90;;;-144.05;76.49;57006.00;6167174;23;20005;-85
2023/08/06 06:37:20;;;;;;;3.97;2.67;;;17.40;99.90;;;-144.05;74.24;56982.66;6147707;23;20025;-88
2023/08/06 06:39:46;;;;;;;3.05;2.40;;;17.30;99.90;;;-144.05;74.98;56986.91;6142573;23;20006;-85
2023/08/06 06:42:11;;;;;;;3.15;2.70;;;17.30;99.90;;;-144.05;75.48;56974.16;6141416;23;20006;-88
2023/08/06 06:44:37;;;;;;;3.33;2.50;;;17.40;99.90;;;-144.05;75.94;56974.16;6141034;23;20009;-88
2023/08/06 06:47:03;;;;;;;6.20;3.22;;;17.60;99.90;;;-144.05;75.78;56963.53;6167002;23;20006;-87
2023/08/06 06:49:30;;;;;;;5.10;2.90;;;17.80;99.90;;;-144.05;74.18;56986.91;6136303;23;20001;-86
2023/08/06 06:51:56;;;;;;;4.97;2.92;;;17.90;99.90;;;-144.05;73.81;57001.75;6165774;23;20005;-86
2023/08/06 06:54:22;;;;;;;5.78;3.10;;;18.10;99.90;;;-144.05;72.43;56984.78;6153334;23;20093;-87
2023/08/06 06:56:48;;;;;;;4.78;2.65;;;18.20;99.90;;;-144.05;71.94;56986.91;6144816;23;20032;-86
2023/08/06 06:59:14;;;;;;;5.70;2.70;;;18.10;99.90;;;-144.05;72.12;56978.41;6139371;23;20407;-88
2023/08/06 07:01:40;;;;;;;6.65;2.45;;;18.10;99.90;;;-144.05;72.15;56965.66;6137431;23;20005;-87
2023/08/06 07:04:05;;;;;;;5.47;3.10;;;18.00;99.90;;;-144.05;70.73;56989.00;6136237;23;20068;-86
2023/08/06 07:06:32;;;;;;;4.30;3.10;;;18.00;99.90;;;-144.05;70.88;56980.53;6134886;23;20043;-86
2023/08/06 07:08:58;;;;;;;5.15;2.85;;;18.00;99.90;;;-144.05;71.22;56984.78;6159200;23;20017;-84
2023/08/06 07:11:23;;;;;;;5.72;2.58;;;18.00;99.90;;;-144.05;71.33;56997.50;6136237;23;20005;-84
2023/08/06 07:14:00;;;;;;;2.88;2.15;;;17.90;99.90;;;-144.05;71.15;56972.03;6160529;23;20010;-83
2023/08/06 07:16:26;;;;;;;3.58;2.00;;;17.90;99.90;;;-144.05;70.92;56999.63;6135736;23;20013;-84
2023/08/06 07:18:53;;;;;;;2.80;1.95;;;17.90;99.90;;;-144.05;71.00;56969.91;6162625;23;20028;-83
2023/08/06 07:21:20;;;;;;;3.95;2.22;;;18.00;99.90;;;-144.05;69.63;56967.78;6162470;23;20008;-85
2023/08/06 07:23:46;;;;;;;3.45;2.33;;;18.10;99.90;;;-144.05;70.06;56997.50;6135940;23;20037;-85
2023/08/06 07:26:12;;;;;;;4.38;2.40;;;18.30;99.90;;;-144.05;69.65;56982.66;6163095;23;20005;-85
2023/08/06 07:28:38;;;;;;;4.40;2.40;;;18.40;99.90;;;-144.05;68.99;56959.28;6111428;23;20021;-84
2023/08/06 07:31:04;;;;;;;3.03;2.40;;;18.30;99.90;;;-144.05;69.65;56997.50;6138369;23;20020;-85
2023/08/06 07:33:30;;;;;;;4.93;2.15;;;18.30;99.90;;;-144.05;69.25;56989.00;6164697;23;20005;-85
2023/08/06 07:35:56;;;;;;;4.55;1.90;;;18.20;99.90;;;-144.05;68.63;56989.00;6136089;23;20009;-84
2023/08/06 07:38:21;;;;;;;4.65;2.35;;;18.20;99.90;;;-144.05;69.07;56982.66;6163818;23;20044;-83
2023/08/06 07:40:47;;;;;;;4.32;2.00;;;18.20;99.90;;;-144.05;68.30;56991.13;6137366;23;20013;-81
2023/08/06 07:43:13;;;;;;;6.47;2.05;;;18.10;99.90;;;-144.05;68.50;56982.66;6161986;23;20056;-81
2023/08/06 07:45:39;;;;;;;4.47;2.00;;;18.00;99.90;;;-144.05;68.85;56989.00;6160431;23;20009;-81
2023/08/06 07:48:05;;;;;;;6.22;2.22;;;18.00;99.90;;;-144.05;69.25;56972.03;6161575;23;20125;-83
2023/08/06 07:50:31;;;;;;;4.03;2.22;;;18.00;99.90;;;-144.05;68.33;56984.78;6135109;23;20006;-84
2023/08/06 07:52:57;;;;;;;3.28;2.08;;;18.00;99.90;;;-144.05;68.67;56989.00;6135149;23;20005;-84
2023/08/06 07:55:23;;;;;;;3.67;2.08;;;18.00;99.90;;;-144.05;69.10;56974.16;6160119;23;20033;-84
2023/08/06 07:57:49;;;;;;;5.03;1.83;;;18.10;99.90;;;-144.05;68.98;57008.13;6159483;23;20010;-83
2023/08/06 08:00:15;;;;;;;3.80;1.92;;;18.20;99.90;;;-144.05;69.21;56986.91;6159573;23;20013;-82
2023/08/06 08:02:41;;;;;;;2.80;2.03;;;18.40;99.90;;;-144.05;68.55;56982.66;6169014;23;20010;-85
2023/08/06 08:05:08;;;;;;;2.38;1.73;;;18.50;99.90;;;-144.05;67.37;56969.91;6167777;23;20302;-83
2023/08/06 08:07:34;;;;;;;2.88;1.98;;;18.60;99.90;;;-144.05;66.74;56986.91;6142140;23;20089;-84
2023/08/06 08:09:59;;;;;;;2.80;1.85;;;18.70;99.90;;;-144.05;67.07;56991.13;6166494;23;20013;-84
2023/08/06 08:12:25;;;;;;;5.72;2.10;;;18.80;99.90;;;-144.05;65.86;56978.41;6134620;23;20009;-82
2023/08/06 08:14:51;;;;;;;4.05;1.83;;;18.90;99.90;;;-144.05;65.95;56993.25;6158943;23;20029;-84
2023/08/06 08:17:17;;;;;;;3.95;1.77;;;19.00;99.90;;;-144.05;65.53;57014.50;6131596;23;20343;-85
2023/08/06 08:19:43;;;;;;;3.70;1.98;;;19.00;99.90;;;-144.05;64.38;56991.13;6132796;23;20025;-84
2023/08/06 08:22:09;;;;;;;3.53;2.03;;;19.10;99.90;;;-144.05;64.57;56984.78;6157909;23;20005;-85
2023/08/06 08:24:35;;;;;;;4.57;2.00;;;19.10;99.90;;;-144.05;64.60;57001.75;6157824;23;20390;-84
2023/08/06 08:27:01;;;;;;;3.42;1.90;;;19.00;99.90;;;-144.05;64.74;56999.63;6157651;23;20006;-85
2023/08/06 08:29:27;;;;;;;2.47;1.60;;;19.00;99.90;;;-144.05;65.23;57012.38;6156374;23;20012;-84
2023/08/06 08:31:53;;;;;;;1.73;1.35;;;18.90;99.90;;;-144.05;65.53;56995.38;6131383;23;20060;-84
2023/08/06 08:34:19;;;;;;;2.47;1.48;;;18.90;99.90;;;-144.05;65.45;56997.50;6156883;23;20383;-81
2023/08/06 08:36:49;;;;;;;4.10;2.55;;;18.80;99.90;;;-144.05;65.92;56986.91;6130544;23;20041;-81
2023/08/06 08:39:15;;;;;;;5.60;2.40;;;18.70;99.90;;;-144.05;66.59;56995.38;6130335;23;20009;-83
2023/08/06 08:41:42;;;;;;;4.70;2.50;;;18.70;99.90;;;-144.05;67.02;57003.88;6157271;23;20010;-84
2023/08/06 08:44:10;;;;;;;3.92;2.40;;;18.80;99.90;;;-144.05;66.65;56989.00;6159186;23;20017;-83
2023/08/06 08:46:40;;;;;;;4.63;2.53;;;18.70;99.90;;;-144.05;67.07;56974.16;6155293;23;20014;-84
2023/08/06 08:49:06;;;;;;;4.43;2.35;;;18.70;99.90;;;-144.05;68.25;57023.00;6156017;23;20010;-82
2023/08/06 08:51:37;;;;;;;3.47;2.20;;;18.70;99.90;;;-144.05;68.65;56997.50;6155497;23;20029;-82
2023/08/06 08:54:04;;;;;;;5.97;2.55;;;18.50;99.90;;;-144.05;69.77;56984.78;6157739;23;20113;-82
2023/08/06 08:56:31;;;;;;;2.38;1.83;;;18.40;99.90;;;-144.05;70.29;56980.53;6130864;23;20013;-82
2023/08/06 08:58:58;;;;;;;5.40;2.30;;;18.30;99.90;;;-144.05;71.71;56984.78;6130690;23;20013;-86
2023/08/06 09:01:26;;;;;;;2.97;2.13;;;18.20;99.90;;;-144.05;73.59;56961.41;6132910;23;20009;-83
2023/08/06 09:03:54;;;;;;;4.05;2.10;;;18.10;99.90;;;-144.05;74.81;56984.78;6133533;23;20016;-87
2023/08/06 09:06:26;;;;;;;4.65;2.58;;;17.90;99.90;;;-144.05;75.42;56982.66;6131368;23;20020;-85
2023/08/06 09:09:29;;;;;;;4.40;2.28;;;17.80;99.90;;;-144.05;76.67;56995.38;6156771;23;20010;-84
2023/08/06 09:12:03;;;;;;;4.80;2.38;;;17.80;99.90;;;-144.05;77.02;57020.88;6133049;23;20009;-86
2023/08/06 09:14:29;;;;;;;3.50;2.13;;;17.70;99.90;;;-144.05;77.39;56955.03;6132234;23;20104;-87
2023/08/06 09:16:57;;;;;;;4.13;2.40;;;17.70;99.90;;;-144.05;77.74;56982.66;6132001;23;20013;-87
2023/08/06 09:19:23;;;;;;;3.08;2.00;;;17.60;99.90;;;-144.05;78.00;56991.13;6131278;23;20033;-85
2023/08/06 09:21:53;;;;;;;4.28;2.35;;;17.60;99.90;;;-144.05;77.94;56991.13;6157024;23;20005;-85
2023/08/06 09:24:18;;;;;;;2.83;1.60;;;17.60;99.90;;;-144.05;78.27;56982.66;6133348;23;20001;-84
2023/08/06 09:26:45;;;;;;;3.05;2.28;;;17.60;99.90;;;-144.05;78.49;56959.28;6133687;23;20036;-83
2023/08/06 09:29:11;;;;;;;3.95;2.22;;;17.60;99.90;;;-144.05;77.02;56989.00;6158353;23;20487;-84
2023/08/06 09:31:53;;;;;;;2.75;1.98;;;17.60;99.90;;;-144.05;77.45;56978.41;6131554;23;20002;-85
2023/08/06 09:34:23;;;;;;;5.30;2.47;;;17.70;99.90;;;-144.05;77.26;56991.13;6132260;23;20013;-84
2023/08/06 09:36:54;;;;;;;4.05;2.53;;;17.70;99.90;;;-144.05;77.20;57001.75;6142740;23;20016;-87
2023/08/06 09:39:30;;;;;;;3.85;2.50;;;17.80;99.90;;;-144.05;76.66;56969.91;6162352;23;20009;-82
2023/08/06 09:42:01;;;;;;;6.75;2.80;;;17.90;99.90;;;-144.05;76.70;56993.25;6157391;23;20057;-83
2023/08/06 09:44:30;;;;;;;5.38;2.60;;;18.00;99.90;;;-144.05;76.85;56984.78;6130711;23;20048;-85
2023/08/06 09:47:06;;;;;;;5.47;2.95;;;18.00;99.90;;;-144.05;76.84;56986.91;6130413;23;20009;-83
2023/08/06 09:49:32;;;;;;;;;;;18.10;99.90;;;-144.05;75.77;56993.25;6131907;23;20249;-83
2023/08/06 09:51:59;;;;;;;5.20;3.03;;;18.10;99.90;;;-144.05;75.92;57001.75;6133714;23;20227;-83
2023/08/06 09:54:28;;;;;;;5.85;2.95;;;18.20;99.90;;;-144.05;76.22;57006.00;6160020;23;20056;-82
2023/08/06 09:56:55;;;;;;;5.82;2.97;;;18.30;99.90;;;-144.05;75.11;56982.66;6162058;23;20033;-83
2023/08/06 09:59:23;;;;;;;4.55;3.10;;;18.40;99.90;;;-144.05;73.92;56982.66;6169663;23;20021;-83
2023/08/06 10:01:50;;;;;;;6.22;3.13;;;18.40;99.90;;;-144.05;73.56;56989.00;6165070;23;20027;-82
2023/08/06 10:04:17;;;;;;;3.10;2.80;;;18.60;99.90;;;-144.05;73.64;56997.50;6166602;23;20029;-82
2023/08/06 10:06:50;;;;;;;4.80;3.35;;;18.80;99.90;;;-144.05;73.25;56989.00;6139989;23;20061;-82
2023/08/06 10:09:18;;;;;;;7.78;4.15;;;18.90;99.90;;;-144.05;71.15;56993.25;6158017;23;20001;-81